createdAt,value
2019-05-13T00:01:23.844Z,99883.81
2019-05-13T00:04:28.312Z,99878.48
2019-05-13T00:07:34.221Z,99870.17
2019-05-13T00:10:38.781Z,99878.70
2019-05-13T00:13:44.376Z,99873.31
2019-05-13T00:16:49.190Z,99868.27
2019-05-13T00:19:53.632Z,99868.16
2019-05-13T00:22:58.349Z,99872.98
2019-05-13T00:26:03.847Z,99875.16
2019-05-13T00:29:08.931Z,99863.97
2019-05-13T00:32:13.610Z,99866.21
2019-05-13T00:35:18.606Z,99863.97
2019-05-13T00:38:24.545Z,99865.91
2019-05-13T00:41:29.499Z,99854.70
2019-05-13T00:44:34.244Z,99862.09
2019-05-13T00:47:39.068Z,99859.05
2019-05-13T00:50:44.233Z,99856.80
2019-05-13T00:53:49.014Z,99857.40
2019-05-13T00:56:54.795Z,99856.70
2019-05-13T00:59:59.362Z,99850.94
2019-05-13T01:03:04.338Z,99858.02
2019-05-13T01:06:09.084Z,99856.91
2019-05-13T01:09:14.495Z,99851.05
2019-05-13T01:12:19.106Z,99858.02
2019-05-13T01:15:24.745Z,99854.73
2019-05-13T01:18:29.366Z,99854.03
2019-05-13T01:21:34.616Z,99853.89
2019-05-13T01:24:39.199Z,99851.66
2019-05-13T01:27:44.604Z,99838.75
2019-05-13T01:30:49.283Z,99845.92
2019-05-13T01:33:53.851Z,99841.20
2019-05-13T01:36:58.642Z,99841.84
2019-05-13T01:40:05.083Z,99842.77
2019-05-13T01:43:09.947Z,99847.05
2019-05-13T01:46:14.677Z,99854.02
2019-05-13T01:49:19.114Z,99847.55
2019-05-13T01:52:23.851Z,99861.09
2019-05-13T01:55:28.457Z,99859.06
2019-05-13T01:58:33.999Z,99852.70
2019-05-13T02:01:39.494Z,99864.37
2019-05-13T02:04:44.187Z,99864.06
2019-05-13T02:07:57.723Z,99867.54
2019-05-13T02:10:56.461Z,99872.75
2019-05-13T02:14:01.150Z,99873.02
2019-05-13T02:17:05.593Z,99879.69
2019-05-13T02:20:10.086Z,99887.31
2019-05-13T02:23:14.829Z,99878.71
2019-05-13T02:26:19.562Z,99875.55
2019-05-13T02:29:24.499Z,99880.45
2019-05-13T02:32:32.669Z,99877.67
2019-05-13T02:35:35.553Z,99874.58
2019-05-13T02:38:42.808Z,99882.05
2019-05-13T02:41:46.816Z,99881.47
2019-05-13T02:44:52.919Z,99881.27
2019-05-13T02:47:57.690Z,99885.36
2019-05-13T02:51:03.731Z,99880.03
2019-05-13T02:54:08.289Z,99882.47
2019-05-13T02:57:13.044Z,99883.47
2019-05-13T03:00:18.259Z,99888.31
2019-05-13T03:03:23.483Z,99896.81
2019-05-13T03:06:28.634Z,99889.83
2019-05-13T03:09:33.069Z,99893.85
2019-05-13T03:12:37.797Z,99897.94
2019-05-13T03:15:43.881Z,99893.70
2019-05-13T03:18:48.382Z,99893.20
2019-05-13T03:21:52.982Z,99898.10
2019-05-13T03:24:58.021Z,99898.15
2019-05-13T03:28:03.380Z,99897.89
2019-05-13T03:31:08.239Z,99895.31
2019-05-13T03:34:15.522Z,99896.06
2019-05-13T03:37:25.347Z,99904.44
2019-05-13T03:40:27.940Z,99908.98
2019-05-13T03:43:33.939Z,99916.48
2019-05-13T03:46:42.555Z,99914.02
2019-05-13T03:49:47.709Z,99921.95
2019-05-13T03:52:52.586Z,99920.95
2019-05-13T03:55:58.128Z,99914.59
2019-05-13T03:59:03.073Z,99931.08
2019-05-13T04:02:07.669Z,99926.83
2019-05-13T04:05:13.885Z,99929.84
2019-05-13T04:08:18.310Z,99926.47
2019-05-13T04:11:23.981Z,99930.59
2019-05-13T04:14:28.895Z,99934.21
2019-05-13T04:17:33.328Z,99938.22
2019-05-13T04:20:38.030Z,99938.84
2019-05-13T04:23:43.155Z,99942.23
2019-05-13T04:26:47.875Z,99944.96
2019-05-13T04:29:52.957Z,99946.96
2019-05-13T04:32:57.384Z,99953.68
2019-05-13T04:36:02.742Z,99947.81
2019-05-13T04:39:07.970Z,99947.61
2019-05-13T04:42:12.695Z,99946.56
2019-05-13T04:45:17.206Z,99947.76
2019-05-13T04:48:23.067Z,99938.80
2019-05-13T04:51:27.756Z,99936.30
2019-05-13T04:54:33.163Z,99945.11
2019-05-13T04:57:38.120Z,99945.09
2019-05-13T05:01:24.914Z,99945.67
2019-05-13T05:04:43.546Z,99943.43
2019-05-13T05:08:23.111Z,99947.25
2019-05-13T05:12:02.527Z,99952.64
2019-05-13T05:15:17.296Z,99959.41
2019-05-13T05:18:47.440Z,99956.77
2019-05-13T05:21:56.821Z,99956.87
2019-05-13T05:25:22.053Z,99964.39
2019-05-13T05:29:04.222Z,99968.00
2019-05-13T05:33:02.152Z,99965.55
2019-05-13T05:36:33.030Z,99967.60
2019-05-13T05:39:38.892Z,99966.95
2019-05-13T05:42:44.943Z,99967.13
2019-05-13T05:45:51.269Z,99958.69
2019-05-13T05:48:57.181Z,99957.17
2019-05-13T05:52:06.818Z,99959.20
2019-05-13T05:55:11.896Z,99961.53
2019-05-13T05:58:17.938Z,99961.80
2019-05-13T06:01:25.043Z,99949.75
2019-05-13T06:04:32.485Z,99949.84
2019-05-13T06:07:37.437Z,99949.55
2019-05-13T06:10:49.912Z,99949.92
2019-05-13T06:13:52.163Z,99949.25
2019-05-13T06:16:55.419Z,99950.03
2019-05-13T06:20:03.283Z,99947.34
2019-05-13T06:23:07.236Z,99942.20
2019-05-13T06:26:12.577Z,99938.92
2019-05-13T06:29:17.186Z,99949.86
2019-05-13T06:32:26.086Z,99949.79
2019-05-13T06:35:28.183Z,99936.94
2019-05-13T06:38:32.943Z,99939.47
2019-05-13T06:41:37.377Z,99938.91
2019-05-13T06:44:42.211Z,99937.70
2019-05-13T06:47:46.727Z,99940.54
2019-05-13T06:50:52.090Z,99939.18
2019-05-13T06:53:56.794Z,99940.56
2019-05-13T06:57:04.615Z,99944.09
2019-05-13T07:00:08.909Z,99946.44
2019-05-13T07:03:13.354Z,99937.75
2019-05-13T07:06:18.082Z,99937.52
2019-05-13T07:09:22.530Z,99931.60
2019-05-13T07:12:26.964Z,99931.31
2019-05-13T07:15:31.765Z,99926.13
2019-05-13T07:18:36.485Z,99930.48
2019-05-13T07:21:41.721Z,99929.13
2019-05-13T07:24:46.451Z,99926.70
2019-05-13T07:27:53.217Z,99928.71
2019-05-13T07:30:57.668Z,99923.36
2019-05-13T07:34:02.457Z,99930.89
2019-05-13T07:37:06.926Z,99940.06
2019-05-13T07:40:11.755Z,99933.88
2019-05-13T07:43:16.327Z,99932.30
2019-05-13T07:46:21.833Z,99929.16
2019-05-13T07:49:26.416Z,99927.87
2019-05-13T07:52:31.914Z,99932.09
2019-05-13T07:55:36.837Z,99927.22
2019-05-13T07:58:42.006Z,99926.80
2019-05-13T08:01:46.931Z,99925.47
2019-05-13T08:04:53.032Z,99915.66
2019-05-13T08:07:57.538Z,99927.63
2019-05-13T08:11:01.988Z,99930.38
2019-05-13T08:14:06.419Z,99917.59
2019-05-13T08:17:11.664Z,99928.12
2019-05-13T08:20:16.742Z,99934.83
2019-05-13T08:23:21.745Z,99929.50
2019-05-13T08:26:26.744Z,99929.09
2019-05-13T08:29:32.856Z,99925.49
2019-05-13T08:32:37.585Z,99930.77
2019-05-13T08:35:47.024Z,99925.94
2019-05-13T08:38:51.745Z,99913.98
2019-05-13T08:42:04.144Z,99908.16
2019-05-13T08:45:02.200Z,99916.73
2019-05-13T08:48:06.677Z,99907.08
2019-05-13T08:51:11.744Z,99900.91
2019-05-13T08:54:16.356Z,99900.16
2019-05-13T08:57:22.133Z,99896.04
2019-05-13T09:00:54.319Z,99895.53
2019-05-13T09:04:01.970Z,99901.79
2019-05-13T09:07:05.081Z,99899.41
2019-05-13T09:10:12.210Z,99904.27
2019-05-13T09:13:15.898Z,99897.70
2019-05-13T09:16:21.467Z,99899.14
2019-05-13T09:19:25.963Z,99902.97
2019-05-13T09:22:31.870Z,99887.72
2019-05-13T09:25:36.420Z,99898.61
2019-05-13T09:28:41.738Z,99903.84
2019-05-13T09:31:46.704Z,99891.20
2019-05-13T09:34:52.486Z,99890.44
2019-05-13T09:37:57.229Z,99881.20
2019-05-13T09:41:02.051Z,99893.17
2019-05-13T09:44:07.070Z,99892.59
2019-05-13T09:47:12.509Z,99888.00
2019-05-13T09:50:28.395Z,99887.17
2019-05-13T09:53:23.934Z,99887.11
2019-05-13T09:56:28.368Z,99896.16
2019-05-13T09:59:32.807Z,99892.27
2019-05-13T10:02:37.604Z,99894.10
2019-05-13T10:05:42.058Z,99895.41
2019-05-13T10:08:46.489Z,99888.41
2019-05-13T10:11:51.958Z,99879.33
2019-05-13T10:14:56.930Z,99889.91
2019-05-13T10:18:01.845Z,99879.36
2019-05-13T10:21:06.800Z,99876.10
2019-05-13T10:24:12.605Z,99883.62
2019-05-13T10:27:19.043Z,99877.10
2019-05-13T10:30:23.718Z,99866.84
2019-05-13T10:33:28.311Z,99868.24
2019-05-13T10:36:33.023Z,99873.37
2019-05-13T10:39:37.475Z,99860.91
2019-05-13T10:42:43.326Z,99865.80
2019-05-13T10:45:48.442Z,99861.20
2019-05-13T10:48:53.175Z,99859.02
2019-05-13T10:51:57.678Z,99863.36
2019-05-13T10:55:02.435Z,99856.02
2019-05-13T10:58:07.376Z,99848.28
2019-05-13T11:01:11.884Z,99850.83
2019-05-13T11:04:16.625Z,99844.83
2019-05-13T11:07:22.516Z,99841.41
2019-05-13T11:10:32.744Z,99848.36
2019-05-13T11:13:52.128Z,99846.07
2019-05-13T11:16:43.489Z,99848.66
2019-05-13T11:19:48.257Z,99840.06
2019-05-13T11:22:52.994Z,99839.69
2019-05-13T11:25:57.424Z,99845.05
2019-05-13T11:29:02.791Z,99850.48
2019-05-13T11:32:07.389Z,99848.55
2019-05-13T11:35:12.991Z,99849.83
2019-05-13T11:38:17.596Z,99848.55
2019-05-13T11:41:23.069Z,99844.12
2019-05-13T11:44:28.052Z,99852.88
2019-05-13T11:47:32.489Z,99838.31
2019-05-13T11:50:36.935Z,99832.20
2019-05-13T11:53:41.790Z,99832.91
2019-05-13T11:56:49.770Z,99830.01
2019-05-13T11:59:53.009Z,99823.30
2019-05-13T12:02:57.551Z,99820.41
2019-05-13T12:06:02.614Z,99825.09
2019-05-13T12:09:12.727Z,99822.27
2019-05-13T12:12:16.157Z,99823.09
2019-05-13T12:15:28.754Z,99824.28
2019-05-13T12:18:27.165Z,99818.66
2019-05-13T12:21:31.596Z,99808.11
2019-05-13T12:24:36.055Z,99808.03
2019-05-13T12:27:41.933Z,99809.56
2019-05-13T12:30:46.581Z,99811.31
2019-05-13T12:33:52.218Z,99811.36
2019-05-13T12:36:57.151Z,99811.52
2019-05-13T12:40:03.238Z,99809.82
2019-05-13T12:43:08.292Z,99819.36
2019-05-13T12:46:13.009Z,99809.64
2019-05-13T12:49:17.448Z,99812.94
2019-05-13T12:52:22.894Z,99812.55
2019-05-13T12:55:27.574Z,99812.42
2019-05-13T12:58:33.825Z,99802.45
2019-05-13T13:01:38.195Z,99803.92
2019-05-13T13:05:07.988Z,99799.83
2019-05-13T13:08:13.591Z,99796.83
2019-05-13T13:10:55.992Z,99796.34
2019-05-13T13:14:05.326Z,99803.95
2019-05-13T13:17:06.603Z,99796.20
2019-05-13T13:20:14.892Z,99783.89
2019-05-13T13:23:17.743Z,99794.40
2019-05-13T13:26:22.493Z,99798.28
2019-05-13T13:29:26.936Z,99785.92
2019-05-13T13:32:33.078Z,99788.11
2019-05-13T13:35:37.839Z,99791.08
2019-05-13T13:38:43.707Z,99782.19
2019-05-13T13:41:48.452Z,99782.12
2019-05-13T13:44:54.065Z,99783.44
2019-05-13T13:48:03.658Z,99769.16
2019-05-13T13:51:05.400Z,99782.05
2019-05-13T13:54:10.314Z,99779.14
2019-05-13T13:57:15.021Z,99771.97
2019-05-13T14:00:34.657Z,99780.75
2019-05-13T14:03:26.532Z,99768.91
2019-05-13T14:09:37.736Z,99767.22
2019-05-13T14:12:42.204Z,99763.31
2019-05-13T14:15:46.902Z,99761.85
2019-05-13T14:18:52.362Z,99770.27
2019-05-13T14:21:57.247Z,99771.16
2019-05-13T14:25:01.683Z,99765.83
2019-05-13T14:28:06.125Z,99759.36
2019-05-13T14:31:12.906Z,99752.23
2019-05-13T14:34:17.339Z,99747.42
2019-05-13T14:37:22.390Z,99750.10
2019-05-13T14:40:26.902Z,99745.66
2019-05-13T14:43:31.846Z,99730.33
2019-05-13T14:46:47.237Z,99723.41
2019-05-13T14:49:42.646Z,99737.36
2019-05-13T14:52:47.095Z,99729.28
2019-05-13T14:55:51.908Z,99721.34
2019-05-13T14:58:56.471Z,99725.52
2019-05-13T15:02:01.457Z,99713.46
2019-05-13T15:05:06.254Z,99725.48
2019-05-13T15:08:10.692Z,99715.97
2019-05-13T15:11:15.408Z,99715.73
2019-05-13T15:14:21.967Z,99711.08
2019-05-13T15:17:26.334Z,99716.98
2019-05-13T15:20:33.087Z,99708.82
2019-05-13T15:23:37.325Z,99714.53
2019-05-13T15:26:42.289Z,99714.97
2019-05-13T15:29:47.092Z,99710.42
2019-05-13T15:32:52.506Z,99713.77
2019-05-13T15:35:57.579Z,99711.56
2019-05-13T15:39:02.029Z,99714.20
2019-05-13T15:42:06.475Z,99712.86
2019-05-13T15:45:12.481Z,99715.82
2019-05-13T15:48:17.063Z,99710.97
2019-05-13T15:51:22.230Z,99715.62
2019-05-13T15:54:26.977Z,99710.99
2019-05-13T15:57:31.868Z,99708.35
2019-05-13T16:00:36.650Z,99706.06
2019-05-13T16:03:41.625Z,99713.91
2019-05-13T16:06:46.102Z,99708.19
2019-05-13T16:09:52.655Z,99715.95
2019-05-13T16:12:56.731Z,99713.13
2019-05-13T16:16:01.692Z,99709.73
2019-05-13T16:19:06.298Z,99716.56
2019-05-13T16:22:11.881Z,99717.13
2019-05-13T16:25:16.644Z,99717.86
2019-05-13T16:28:21.090Z,99714.08
2019-05-13T16:31:25.531Z,99712.27
2019-05-13T16:34:31.933Z,99710.11
2019-05-13T16:37:36.441Z,99707.38
2019-05-13T16:40:42.359Z,99705.74
2019-05-13T16:43:46.888Z,99705.11
2019-05-13T16:46:51.579Z,99702.89
2019-05-13T16:49:56.350Z,99702.33
2019-05-13T16:53:01.945Z,99706.64
2019-05-13T16:56:06.511Z,99699.53
2019-05-13T16:59:10.950Z,99704.95
2019-05-13T17:02:15.395Z,99712.06
2019-05-13T17:05:20.300Z,99708.00
2019-05-13T17:08:24.741Z,99707.99
2019-05-13T17:11:29.179Z,99709.73
2019-05-13T17:14:33.621Z,99711.40
2019-05-13T17:17:38.306Z,99719.02
2019-05-13T17:20:42.738Z,99716.86
2019-05-13T17:23:47.554Z,99710.38
2019-05-13T17:26:52.309Z,99716.61
2019-05-13T17:29:56.984Z,99717.66
2019-05-13T17:33:02.244Z,99712.56
2019-05-13T17:36:07.095Z,99711.47
2019-05-13T17:39:12.568Z,99713.35
2019-05-13T17:42:17.477Z,99712.55
2019-05-13T17:45:22.104Z,99710.11
2019-05-13T17:48:29.478Z,99714.18
2019-05-13T17:51:32.679Z,99709.28
2019-05-13T17:54:37.125Z,99710.64
2019-05-13T17:57:41.644Z,99712.78
2019-05-13T18:00:46.348Z,99717.65
2019-05-13T18:03:51.739Z,99714.88
2019-05-13T18:06:58.728Z,99719.42
2019-05-13T18:10:02.566Z,99725.94
2019-05-13T18:13:07.000Z,99717.53
2019-05-13T18:16:12.527Z,99718.84
2019-05-13T18:19:17.523Z,99709.88
2019-05-13T18:22:22.248Z,99715.52
2019-05-13T18:25:26.708Z,99716.58
2019-05-13T18:28:31.668Z,99716.47
2019-05-13T18:31:36.539Z,99713.98
2019-05-13T18:34:41.276Z,99715.86
2019-05-13T18:37:45.999Z,99715.31
2019-05-13T18:40:52.641Z,99707.72
2019-05-13T18:43:57.206Z,99710.77
2019-05-13T18:47:01.830Z,99716.57
2019-05-13T18:50:07.611Z,99717.25
2019-05-13T18:53:12.432Z,99713.09
2019-05-13T18:56:17.148Z,99717.85
2019-05-13T18:59:21.883Z,99725.35
2019-05-13T19:02:26.619Z,99727.72
2019-05-13T19:05:31.720Z,99727.13
2019-05-13T19:08:36.790Z,99736.23
2019-05-13T19:11:42.721Z,99730.22
2019-05-13T19:14:47.454Z,99738.34
2019-05-13T19:17:52.623Z,99738.08
2019-05-13T19:20:57.070Z,99733.99
2019-05-13T19:24:02.113Z,99734.18
2019-05-13T19:27:07.018Z,99739.61
2019-05-13T19:30:12.392Z,99748.73
2019-05-13T19:33:17.197Z,99738.00
2019-05-13T19:36:21.637Z,99742.39
2019-05-13T19:39:26.074Z,99738.05
2019-05-13T19:42:31.380Z,99742.61
2019-05-13T19:45:35.941Z,99741.83
2019-05-13T19:48:41.684Z,99745.18
2019-05-13T19:51:46.614Z,99746.22
2019-05-13T19:54:51.493Z,99750.70
2019-05-13T19:57:56.173Z,99746.61
2019-05-13T20:01:00.625Z,99750.55
2019-05-13T20:04:05.352Z,99752.05
2019-05-13T20:07:11.881Z,99749.23
2019-05-13T20:10:16.245Z,99744.31
2019-05-13T20:13:21.808Z,99744.56
2019-05-13T20:16:26.298Z,99738.77
2019-05-13T20:19:46.174Z,99744.24
2019-05-13T20:22:36.903Z,99742.03
2019-05-13T20:25:41.836Z,99737.45
2019-05-13T20:28:46.393Z,99742.70
2019-05-13T20:31:51.836Z,99745.62
2019-05-13T20:34:56.360Z,99735.13
2019-05-13T20:38:02.236Z,99740.56
2019-05-13T20:41:06.866Z,99743.68
2019-05-13T20:44:11.318Z,99737.75
2019-05-13T20:47:16.068Z,99740.74
2019-05-13T20:50:21.818Z,99741.39
2019-05-13T20:53:26.301Z,99739.80
2019-05-13T20:56:31.743Z,99745.74
2019-05-13T20:59:36.622Z,99744.18
2019-05-13T21:02:41.811Z,99741.91
2019-05-13T21:05:46.290Z,99740.62
2019-05-13T21:08:52.191Z,99743.50
2019-05-13T21:11:57.193Z,99740.87
2019-05-13T21:15:01.922Z,99737.53
2019-05-13T21:18:06.647Z,99734.49
2019-05-13T21:21:11.714Z,99728.84
2019-05-13T21:24:16.409Z,99731.02
2019-05-13T21:27:20.921Z,99730.17
2019-05-13T21:30:25.678Z,99740.54
2019-05-13T21:33:31.523Z,99739.64
2019-05-13T21:36:36.151Z,99742.05
2019-05-13T21:39:41.264Z,99738.94
2019-05-13T21:42:46.165Z,99737.27
2019-05-13T21:45:52.364Z,99742.13
2019-05-13T21:48:56.998Z,99736.58
2019-05-13T21:52:01.754Z,99741.22
2019-05-13T21:55:07.637Z,99740.59
2019-05-13T21:58:14.213Z,99737.52
2019-05-13T22:01:23.104Z,99734.81
2019-05-13T22:04:25.177Z,99736.20
2019-05-13T22:07:31.528Z,99734.86
2019-05-13T22:10:36.034Z,99734.45
2019-05-13T22:13:41.912Z,99731.27
2019-05-13T22:16:46.869Z,99738.03
2019-05-13T22:19:51.380Z,99738.83
2019-05-13T22:22:55.810Z,99737.53
2019-05-13T22:26:01.632Z,99732.69
2019-05-13T22:29:06.364Z,99733.47
2019-05-13T22:32:11.445Z,99733.39
2019-05-13T22:35:16.129Z,99729.66
2019-05-13T22:38:21.394Z,99723.72
2019-05-13T22:41:26.249Z,99724.11
2019-05-13T22:44:32.446Z,99722.92
2019-05-13T22:47:36.843Z,99720.56
2019-05-13T22:50:42.728Z,99727.61
2019-05-13T22:53:47.161Z,99723.86
2019-05-13T22:56:52.319Z,99720.38
2019-05-13T22:59:57.194Z,99718.75
2019-05-13T23:03:01.895Z,99717.19
2019-05-13T23:06:06.448Z,99712.31
2019-05-13T23:09:12.532Z,99710.44
2019-05-13T23:12:17.086Z,99710.67
2019-05-13T23:15:21.539Z,99708.59
2019-05-13T23:18:25.965Z,99707.27
2019-05-13T23:21:31.302Z,99704.08
2019-05-13T23:24:35.936Z,99699.52
2019-05-13T23:27:41.565Z,99698.86
2019-05-13T23:30:46.347Z,99701.84
2019-05-13T23:33:50.806Z,99698.94
2019-05-13T23:36:55.241Z,99703.25
2019-05-13T23:40:01.445Z,99693.38
2019-05-13T23:43:06.198Z,99686.06
2019-05-13T23:46:11.752Z,99690.66
2019-05-13T23:49:16.683Z,99686.56
2019-05-13T23:52:22.002Z,99692.73
2019-05-13T23:55:27.066Z,99688.24
2019-05-13T23:58:32.145Z,99685.88
